createdAt,value
2023-01-13T00:01:29.297Z,9.35
2023-01-13T00:03:57.303Z,9.36
2023-01-13T00:06:26.148Z,9.33
2023-01-13T00:08:54.611Z,9.30
2023-01-13T00:11:23.134Z,9.27
2023-01-13T00:13:50.719Z,9.25
2023-01-13T00:16:19.872Z,9.23
2023-01-13T00:18:49.206Z,9.20
2023-01-13T00:21:24.852Z,9.19
2023-01-13T00:23:55.097Z,9.16
2023-01-13T00:26:27.895Z,9.16
2023-01-13T00:28:58.988Z,9.14
2023-01-13T00:31:29.482Z,9.13
2023-01-13T00:33:59.850Z,9.10
2023-01-13T00:36:28.356Z,9.08
2023-01-13T00:38:55.976Z,9.04
2023-01-13T00:41:26.037Z,9.01
2023-01-13T00:43:53.509Z,8.97
2023-01-13T00:46:23.002Z,8.95
2023-01-13T00:48:51.557Z,8.92
2023-01-13T00:51:21.741Z,8.90
2023-01-13T00:53:51.625Z,8.86
2023-01-13T00:56:38.960Z,8.84
2023-01-13T00:59:11.812Z,8.79
2023-01-13T01:01:41.016Z,8.75
2023-01-13T01:04:08.783Z,8.73
2023-01-13T01:06:36.689Z,8.70
2023-01-13T01:09:05.537Z,8.66
2023-01-13T01:11:34.200Z,8.64
2023-01-13T01:14:04.144Z,8.60
2023-01-13T01:16:33.638Z,8.57
2023-01-13T01:19:02.044Z,8.55
2023-01-13T01:21:29.773Z,8.54
2023-01-13T01:24:01.217Z,8.55
2023-01-13T01:26:30.758Z,8.56
2023-01-13T01:28:59.322Z,8.55
2023-01-13T01:31:31.573Z,8.57
2023-01-13T01:34:01.361Z,8.58
2023-01-13T01:36:34.915Z,8.58
2023-01-13T01:39:04.079Z,8.60
2023-01-13T01:41:35.165Z,8.61
2023-01-13T01:44:28.488Z,8.60
2023-01-13T01:46:57.494Z,8.59
2023-01-13T01:49:36.817Z,8.58
2023-01-13T01:52:11.780Z,8.55
2023-01-13T01:54:59.329Z,8.54
2023-01-13T01:57:39.158Z,8.51
2023-01-13T02:00:08.694Z,8.49
2023-01-13T02:02:46.464Z,8.49
2023-01-13T02:05:14.475Z,8.48
2023-01-13T02:07:45.873Z,8.49
2023-01-13T02:10:18.456Z,8.48
2023-01-13T02:12:48.865Z,8.46
2023-01-13T02:15:29.965Z,8.46
2023-01-13T02:18:33.911Z,8.44
2023-01-13T02:21:51.700Z,8.40
2023-01-13T02:24:55.037Z,8.37
2023-01-13T02:27:42.424Z,8.34
2023-01-13T02:30:53.543Z,8.33
2023-01-13T02:33:34.461Z,8.27
2023-01-13T02:36:11.565Z,8.24
2023-01-13T02:38:52.242Z,8.23
2023-01-13T02:41:52.738Z,8.22
2023-01-13T02:44:28.580Z,8.16
2023-01-13T02:47:22.852Z,8.14
2023-01-13T02:49:59.588Z,8.11
2023-01-13T02:52:42.760Z,8.10
2023-01-13T02:55:21.070Z,8.07
2023-01-13T02:57:51.607Z,8.06
2023-01-13T03:00:20.688Z,8.06
2023-01-13T03:02:49.460Z,8.05
2023-01-13T03:05:17.598Z,8.06
2023-01-13T03:08:31.774Z,8.07
2023-01-13T03:11:11.224Z,8.05
2023-01-13T03:14:11.001Z,8.08
2023-01-13T03:16:45.180Z,8.07
2023-01-13T03:19:44.061Z,8.10
2023-01-13T03:22:23.728Z,8.09
2023-01-13T03:24:59.072Z,8.11
2023-01-13T03:27:51.749Z,8.12
2023-01-13T03:30:36.346Z,8.13
2023-01-13T03:33:33.329Z,8.14
2023-01-13T03:36:09.869Z,8.15
2023-01-13T03:38:50.051Z,8.19
2023-01-13T03:41:29.981Z,8.19
2023-01-13T03:44:21.429Z,8.21
2023-01-13T03:47:36.773Z,8.22
2023-01-13T03:50:22.558Z,8.22
2023-01-13T03:53:06.667Z,8.26
2023-01-13T03:55:47.415Z,8.28
2023-01-13T03:58:23.375Z,8.30
2023-01-13T04:01:05.358Z,8.32
2023-01-13T04:03:49.971Z,8.33
2023-01-13T04:06:44.733Z,8.36
2023-01-13T04:09:22.845Z,8.36
2023-01-13T04:12:08.835Z,8.38
2023-01-13T04:14:37.763Z,8.39
2023-01-13T04:17:05.320Z,8.40
2023-01-13T04:19:33.106Z,8.40
2023-01-13T04:22:00.595Z,8.41
2023-01-13T04:24:28.135Z,8.42
2023-01-13T04:26:56.513Z,8.43
2023-01-13T04:29:23.964Z,8.44
2023-01-13T04:31:51.349Z,8.43
2023-01-13T04:34:18.939Z,8.44
2023-01-13T04:36:46.450Z,8.43
2023-01-13T04:39:13.897Z,8.44
2023-01-13T04:41:59.656Z,8.43
2023-01-13T04:44:27.522Z,8.39
2023-01-13T04:46:55.099Z,8.36
2023-01-13T04:49:22.783Z,8.35
2023-01-13T04:51:50.542Z,8.35
2023-01-13T04:54:17.984Z,8.32
2023-01-13T04:56:45.614Z,8.31
2023-01-13T04:59:14.394Z,8.30
2023-01-13T05:01:42.072Z,8.26
2023-01-13T05:04:09.572Z,8.24
2023-01-13T05:06:37.164Z,8.24
2023-01-13T05:09:04.567Z,8.21
2023-01-13T05:11:51.168Z,8.18
2023-01-13T05:14:37.607Z,8.14
2023-01-13T05:17:05.173Z,8.09
2023-01-13T05:19:35.817Z,8.05
2023-01-13T05:22:22.457Z,8.02
2023-01-13T05:25:08.730Z,7.97
2023-01-13T05:27:36.628Z,7.94
2023-01-13T05:30:05.798Z,7.94
2023-01-13T05:32:33.308Z,7.93
2023-01-13T05:35:00.831Z,7.91
2023-01-13T05:37:28.291Z,7.91
2023-01-13T05:40:14.649Z,7.90
2023-01-13T05:43:00.612Z,7.90
2023-01-13T05:45:30.728Z,7.90
2023-01-13T05:47:58.522Z,7.92
2023-01-13T05:50:25.970Z,7.95
2023-01-13T05:52:53.422Z,7.95
2023-01-13T05:55:20.890Z,7.96
2023-01-13T05:57:48.331Z,7.99
2023-01-13T06:00:16.846Z,8.00
2023-01-13T06:02:44.315Z,8.02
2023-01-13T06:05:11.746Z,8.02
2023-01-13T06:07:39.333Z,8.03
2023-01-13T06:10:07.931Z,8.03
2023-01-13T06:12:35.414Z,8.03
2023-01-13T06:15:03.162Z,8.02
2023-01-13T06:17:30.798Z,8.00
2023-01-13T06:19:58.234Z,7.98
2023-01-13T06:22:32.327Z,7.95
2023-01-13T06:24:59.990Z,7.89
2023-01-13T06:27:30.321Z,7.85
2023-01-13T06:29:57.752Z,7.82
2023-01-13T06:32:40.222Z,7.79
2023-01-13T06:35:14.093Z,7.76
2023-01-13T06:37:44.990Z,7.72
2023-01-13T06:40:14.799Z,7.69
2023-01-13T06:43:00.950Z,7.66
2023-01-13T06:45:31.426Z,7.63
2023-01-13T06:48:00.676Z,7.63
2023-01-13T06:50:28.888Z,7.60
2023-01-13T06:52:56.416Z,7.59
2023-01-13T06:55:24.207Z,7.56
2023-01-13T06:57:55.142Z,7.55
2023-01-13T07:00:25.524Z,7.54
2023-01-13T07:02:53.986Z,7.56
2023-01-13T07:05:22.539Z,7.55
2023-01-13T07:07:50.095Z,7.54
2023-01-13T07:10:22.449Z,7.53
2023-01-13T07:13:08.534Z,7.54
2023-01-13T07:15:36.274Z,7.53
2023-01-13T07:18:04.033Z,7.51
2023-01-13T07:20:31.717Z,7.52
2023-01-13T07:22:59.252Z,7.50
2023-01-13T07:25:26.759Z,7.54
2023-01-13T07:27:57.353Z,7.55
2023-01-13T07:30:30.436Z,7.57
2023-01-13T07:32:57.983Z,7.59
2023-01-13T07:35:25.440Z,7.60
2023-01-13T07:37:53.009Z,7.62
2023-01-13T07:40:20.505Z,7.62
2023-01-13T07:43:07.013Z,7.62
2023-01-13T07:45:34.510Z,7.59
2023-01-13T07:48:02.064Z,7.61
2023-01-13T07:50:29.653Z,7.59
2023-01-13T07:53:00.182Z,7.57
2023-01-13T07:55:27.581Z,7.56
2023-01-13T07:57:55.090Z,7.55
2023-01-13T08:00:23.401Z,7.55
2023-01-13T08:02:50.867Z,7.55
2023-01-13T08:05:18.512Z,7.55
2023-01-13T08:07:46.077Z,7.55
2023-01-13T08:10:13.520Z,7.54
2023-01-13T08:12:59.915Z,7.55
2023-01-13T08:15:27.487Z,7.55
2023-01-13T08:17:55.056Z,7.59
2023-01-13T08:20:22.611Z,7.59
2023-01-13T08:22:50.107Z,7.60
2023-01-13T08:25:17.697Z,7.63
2023-01-13T08:27:45.143Z,7.63
2023-01-13T08:30:12.816Z,7.64
2023-01-13T08:32:40.263Z,7.65
2023-01-13T08:35:08.352Z,7.66
2023-01-13T08:37:35.881Z,7.66
2023-01-13T08:40:04.503Z,7.69
2023-01-13T08:42:32.826Z,7.70
2023-01-13T08:45:00.368Z,7.72
2023-01-13T08:47:28.829Z,7.72
2023-01-13T08:49:56.273Z,7.74
2023-01-13T08:52:24.173Z,7.75
2023-01-13T08:54:51.606Z,7.76
2023-01-13T08:57:22.053Z,7.78
2023-01-13T08:59:49.675Z,7.80
2023-01-13T09:02:21.497Z,7.81
2023-01-13T09:04:49.811Z,7.83
2023-01-13T09:07:18.384Z,7.88
2023-01-13T09:09:46.094Z,7.88
2023-01-13T09:12:35.120Z,7.90
2023-01-13T09:15:06.183Z,7.93
2023-01-13T09:17:33.850Z,7.96
2023-01-13T09:20:01.264Z,7.99
2023-01-13T09:22:28.747Z,8.03
2023-01-13T09:24:56.333Z,8.12
2023-01-13T09:27:24.303Z,8.21
2023-01-13T09:29:51.789Z,8.31
2023-01-13T09:32:19.402Z,8.40
2023-01-13T09:35:02.352Z,8.47
2023-01-13T09:37:34.685Z,8.52
2023-01-13T09:40:18.478Z,8.56
2023-01-13T09:43:19.637Z,8.59
2023-01-13T09:45:59.684Z,8.60
2023-01-13T09:48:35.088Z,8.62
2023-01-13T09:51:30.781Z,8.61
2023-01-13T09:54:11.554Z,8.56
2023-01-13T09:56:39.169Z,8.54
2023-01-13T09:59:12.214Z,8.53
2023-01-13T10:01:59.441Z,8.54
2023-01-13T10:04:27.763Z,8.54
2023-01-13T10:07:05.933Z,8.58
2023-01-13T10:09:49.186Z,8.63
2023-01-13T10:12:43.587Z,8.68
2023-01-13T10:15:17.964Z,8.70
2023-01-13T10:18:18.246Z,8.72
2023-01-13T10:21:21.296Z,8.70
2023-01-13T10:24:07.239Z,8.69
2023-01-13T10:27:31.725Z,8.64
2023-01-13T10:29:59.153Z,8.62
2023-01-13T10:32:26.705Z,8.60
2023-01-13T10:34:57.372Z,8.55
2023-01-13T10:37:27.950Z,8.48
2023-01-13T10:40:00.976Z,8.43
2023-01-13T10:42:28.503Z,8.37
2023-01-13T10:44:59.931Z,8.32
2023-01-13T10:47:30.996Z,8.24
2023-01-13T10:50:03.679Z,8.21
2023-01-13T10:52:38.084Z,8.14
2023-01-13T10:55:26.654Z,8.10
2023-01-13T10:57:54.526Z,8.02
2023-01-13T11:00:33.034Z,7.98
2023-01-13T11:03:24.265Z,7.98
2023-01-13T11:05:56.502Z,7.93
2023-01-13T11:08:43.945Z,7.93
2023-01-13T11:11:38.088Z,7.95
2023-01-13T11:14:39.455Z,7.95
2023-01-13T11:17:25.451Z,7.92
2023-01-13T11:20:32.403Z,7.94
2023-01-13T11:23:14.623Z,7.91
2023-01-13T11:25:49.067Z,7.92
2023-01-13T11:28:38.945Z,7.94
2023-01-13T11:31:33.514Z,7.94
2023-01-13T11:34:21.853Z,7.94
2023-01-13T11:36:54.203Z,7.97
2023-01-13T11:39:30.172Z,7.99
2023-01-13T11:42:36.756Z,8.05
2023-01-13T11:45:34.749Z,8.11
2023-01-13T11:48:03.006Z,8.16
2023-01-13T11:50:51.479Z,8.27
2023-01-13T11:53:24.491Z,8.36
2023-01-13T11:56:33.288Z,8.46
2023-01-13T11:59:30.758Z,8.56
2023-01-13T12:02:19.997Z,8.60
2023-01-13T12:05:03.600Z,8.73
2023-01-13T12:08:23.372Z,8.87
2023-01-13T12:11:14.352Z,8.95
2023-01-13T12:14:13.646Z,8.99
2023-01-13T12:16:50.664Z,8.99
2023-01-13T12:19:29.450Z,8.95
2023-01-13T12:22:15.649Z,8.95
2023-01-13T12:25:04.157Z,8.90
2023-01-13T12:27:47.450Z,8.88
2023-01-13T12:30:39.064Z,8.79
2023-01-13T12:33:36.547Z,8.71
2023-01-13T12:36:25.461Z,8.66
2023-01-13T12:38:58.876Z,8.60
2023-01-13T12:42:04.046Z,8.57
2023-01-13T12:44:31.663Z,8.53
2023-01-13T12:47:00.318Z,8.52
2023-01-13T12:49:36.329Z,8.53
2023-01-13T12:52:17.351Z,8.53
2023-01-13T12:54:44.755Z,8.50
2023-01-13T12:57:24.141Z,8.48
2023-01-13T13:00:03.753Z,8.50
2023-01-13T13:02:43.971Z,8.48
2023-01-13T13:05:14.414Z,8.48
2023-01-13T13:07:48.629Z,8.48
2023-01-13T13:10:40.375Z,8.48
2023-01-13T13:13:39.320Z,8.48
2023-01-13T13:16:25.485Z,8.48
2023-01-13T13:19:20.130Z,8.48
2023-01-13T13:22:09.968Z,8.52
2023-01-13T13:24:43.089Z,8.55
2023-01-13T13:27:30.104Z,8.61
2023-01-13T13:30:33.679Z,8.65
2023-01-13T13:33:15.318Z,8.69
2023-01-13T13:36:13.777Z,8.72
2023-01-13T13:39:23.525Z,8.78
2023-01-13T13:42:23.181Z,8.78
2023-01-13T13:45:09.953Z,8.78
2023-01-13T13:47:39.457Z,8.78
2023-01-13T13:50:14.430Z,8.77
2023-01-13T13:52:54.120Z,8.76
2023-01-13T13:55:30.076Z,8.75
2023-01-13T13:58:01.514Z,8.73
2023-01-13T14:00:37.925Z,8.73
2023-01-13T14:03:34.097Z,8.73
2023-01-13T14:06:06.117Z,8.72
2023-01-13T14:08:38.065Z,8.74
2023-01-13T14:11:28.491Z,8.75
2023-01-13T14:14:13.821Z,8.74
2023-01-13T14:16:41.682Z,8.73
2023-01-13T14:19:36.041Z,8.77
2023-01-13T14:22:05.540Z,8.78
2023-01-13T14:24:34.074Z,8.80
2023-01-13T14:27:17.552Z,8.85
2023-01-13T14:29:45.670Z,8.85
2023-01-13T14:32:19.956Z,8.90
2023-01-13T14:34:48.270Z,8.90
2023-01-13T14:37:36.606Z,8.91
2023-01-13T14:40:05.145Z,8.90
2023-01-13T14:42:35.395Z,8.89
2023-01-13T14:45:03.570Z,8.89
2023-01-13T14:47:34.076Z,8.88
2023-01-13T14:50:16.697Z,8.89
2023-01-13T14:52:57.195Z,8.86
2023-01-13T14:55:38.438Z,8.86
2023-01-13T14:58:28.595Z,8.84
2023-01-13T15:01:36.186Z,8.84
2023-01-13T15:04:28.156Z,8.82
2023-01-13T15:06:57.547Z,8.79
2023-01-13T15:09:33.049Z,8.79
2023-01-13T15:12:17.264Z,8.78
2023-01-13T15:14:51.560Z,8.77
2023-01-13T15:17:19.070Z,8.78
2023-01-13T15:19:46.530Z,8.77
2023-01-13T15:22:13.974Z,8.78
2023-01-13T15:24:41.887Z,8.76
2023-01-13T15:27:22.316Z,8.78
2023-01-13T15:29:49.808Z,8.78
2023-01-13T15:32:21.968Z,8.78
2023-01-13T15:34:49.617Z,8.76
2023-01-13T15:37:17.115Z,8.77
2023-01-13T15:39:44.587Z,8.76
2023-01-13T15:42:31.816Z,8.76
2023-01-13T15:45:32.453Z,8.74
2023-01-13T15:48:00.102Z,8.70
2023-01-13T15:50:28.003Z,8.69
2023-01-13T15:52:55.471Z,8.68
2023-01-13T15:55:22.935Z,8.67
2023-01-13T15:57:50.989Z,8.66
2023-01-13T16:00:21.827Z,8.66
2023-01-13T16:02:50.426Z,8.65
2023-01-13T16:05:17.962Z,8.66
2023-01-13T16:07:45.776Z,8.64
2023-01-13T16:10:25.923Z,8.65
2023-01-13T16:12:55.788Z,8.64
2023-01-13T16:15:24.877Z,8.64
2023-01-13T16:18:03.416Z,8.65
2023-01-13T16:20:30.911Z,8.62
2023-01-13T16:22:58.311Z,8.63
2023-01-13T16:25:27.819Z,8.62
2023-01-13T16:27:55.328Z,8.61
2023-01-13T16:30:31.080Z,8.62
2023-01-13T16:32:58.877Z,8.60
2023-01-13T16:35:28.388Z,8.59
2023-01-13T16:37:58.481Z,8.60
2023-01-13T16:40:36.428Z,8.61
2023-01-13T16:43:06.686Z,8.59
2023-01-13T16:45:34.323Z,8.58
2023-01-13T16:48:01.842Z,8.57
2023-01-13T16:50:36.991Z,8.57
2023-01-13T16:53:05.316Z,8.55
2023-01-13T16:55:32.885Z,8.56
2023-01-13T16:58:00.331Z,8.56
2023-01-13T17:00:28.028Z,8.55
2023-01-13T17:02:55.615Z,8.53
2023-01-13T17:05:23.040Z,8.54
2023-01-13T17:07:50.634Z,8.54
2023-01-13T17:10:21.965Z,8.54
2023-01-13T17:12:49.744Z,8.54
2023-01-13T17:15:19.312Z,8.55
2023-01-13T17:17:48.704Z,8.56
2023-01-13T17:20:16.367Z,8.58
2023-01-13T17:22:47.545Z,8.59
2023-01-13T17:25:17.404Z,8.59
2023-01-13T17:27:44.973Z,8.60
2023-01-13T17:30:16.169Z,8.60
2023-01-13T17:32:43.642Z,8.57
2023-01-13T17:35:12.857Z,8.58
2023-01-13T17:37:40.510Z,8.56
2023-01-13T17:40:09.208Z,8.56
2023-01-13T17:42:37.434Z,8.54
2023-01-13T17:45:06.129Z,8.54
2023-01-13T17:47:33.524Z,8.55
2023-01-13T17:50:01.005Z,8.56
2023-01-13T17:52:28.514Z,8.54
2023-01-13T17:54:56.047Z,8.55
2023-01-13T17:57:23.903Z,8.53
2023-01-13T17:59:51.308Z,8.51
2023-01-13T18:02:18.885Z,8.48
2023-01-13T18:04:46.435Z,8.44
2023-01-13T18:07:13.863Z,8.45
2023-01-13T18:09:41.329Z,8.47
2023-01-13T18:12:08.813Z,8.43
2023-01-13T18:14:36.246Z,8.42
2023-01-13T18:17:03.795Z,8.39
2023-01-13T18:19:50.240Z,8.38
2023-01-13T18:22:36.208Z,8.34
2023-01-13T18:25:22.977Z,8.32
2023-01-13T18:27:50.524Z,8.29
2023-01-13T18:30:18.111Z,8.26
2023-01-13T18:32:45.522Z,8.25
2023-01-13T18:35:15.403Z,8.23
2023-01-13T18:37:43.010Z,8.23
2023-01-13T18:40:13.399Z,8.26
2023-01-13T18:42:56.491Z,8.25
2023-01-13T18:45:28.129Z,8.21
2023-01-13T18:47:57.808Z,8.13
2023-01-13T18:50:28.353Z,8.09
2023-01-13T18:52:56.285Z,8.06
2023-01-13T18:55:25.225Z,8.02
2023-01-13T18:57:53.603Z,7.97
2023-01-13T19:00:22.538Z,7.93
2023-01-13T19:05:35.858Z,7.84
2023-01-13T19:08:04.777Z,7.81
2023-01-13T19:10:32.649Z,7.77
2023-01-13T19:13:01.584Z,7.74
2023-01-13T19:15:30.065Z,7.73
2023-01-13T19:17:57.619Z,7.73
2023-01-13T19:20:25.084Z,7.74
2023-01-13T19:22:54.375Z,7.73
2023-01-13T19:25:22.746Z,7.73
2023-01-13T19:27:50.208Z,7.73
2023-01-13T19:30:18.004Z,7.74
2023-01-13T19:32:45.457Z,7.73
2023-01-13T19:35:17.292Z,7.74
2023-01-13T19:37:46.973Z,7.74
2023-01-13T19:40:14.710Z,7.73
2023-01-13T19:43:21.457Z,7.72
2023-01-13T19:45:51.148Z,7.70
2023-01-13T19:48:18.672Z,7.70
2023-01-13T19:50:46.159Z,7.71
2023-01-13T19:53:17.594Z,7.73
2023-01-13T19:55:48.498Z,7.72
2023-01-13T19:58:23.089Z,7.71
2023-01-13T20:00:54.124Z,7.71
2023-01-13T20:03:26.827Z,7.73
2023-01-13T20:05:55.140Z,7.74
2023-01-13T20:08:25.793Z,7.75
2023-01-13T20:11:13.286Z,7.76
2023-01-13T20:13:40.793Z,7.75
2023-01-13T20:16:08.885Z,7.75
2023-01-13T20:18:37.320Z,7.74
2023-01-13T20:21:07.844Z,7.76
2023-01-13T20:23:35.729Z,7.75
2023-01-13T20:26:10.177Z,7.75
2023-01-13T20:28:39.456Z,7.74
2023-01-13T20:31:13.181Z,7.76
2023-01-13T20:33:41.630Z,7.77
2023-01-13T20:36:27.356Z,7.81
2023-01-13T20:38:59.500Z,7.79
2023-01-13T20:41:46.630Z,7.79
2023-01-13T20:44:14.848Z,7.78
2023-01-13T20:46:46.812Z,7.78
2023-01-13T20:49:16.530Z,7.79
2023-01-13T20:51:44.384Z,7.78
2023-01-13T20:54:11.812Z,7.78
2023-01-13T20:56:40.500Z,7.76
2023-01-13T20:59:08.691Z,7.77
2023-01-13T21:01:37.832Z,7.78
2023-01-13T21:04:07.133Z,7.78
2023-01-13T21:06:35.350Z,7.79
2023-01-13T21:09:03.100Z,7.81
2023-01-13T21:11:49.106Z,7.83
2023-01-13T21:14:44.483Z,7.87
2023-01-13T21:17:33.712Z,7.89
2023-01-13T21:20:04.789Z,7.92
2023-01-13T21:22:32.305Z,7.94
2023-01-13T21:24:59.982Z,7.95
2023-01-13T21:27:27.472Z,7.96
2023-01-13T21:29:55.018Z,7.96
2023-01-13T21:32:22.749Z,7.95
2023-01-13T21:34:50.268Z,7.97
2023-01-13T21:37:18.628Z,7.95
2023-01-13T21:39:46.324Z,7.96
2023-01-13T21:42:33.919Z,7.98
2023-01-13T21:45:20.636Z,7.98
2023-01-13T21:47:48.592Z,7.99
2023-01-13T21:50:25.512Z,8.00
2023-01-13T21:52:53.038Z,8.02
2023-01-13T21:55:25.407Z,8.04
2023-01-13T21:57:55.974Z,8.04
2023-01-13T22:00:31.000Z,8.06
2023-01-13T22:02:59.655Z,8.06
2023-01-13T22:05:27.101Z,8.08
2023-01-13T22:07:54.548Z,8.10
2023-01-13T22:10:25.794Z,8.13
2023-01-13T22:13:22.381Z,8.16
2023-01-13T22:15:49.981Z,8.14
2023-01-13T22:18:20.182Z,8.15
2023-01-13T22:20:49.118Z,8.18
2023-01-13T22:23:17.010Z,8.18
2023-01-13T22:25:44.444Z,8.19
2023-01-13T22:28:13.885Z,8.19
2023-01-13T22:30:41.453Z,8.18
2023-01-13T22:33:09.496Z,8.18
2023-01-13T22:35:38.420Z,8.19
2023-01-13T22:38:05.986Z,8.18
2023-01-13T22:40:33.408Z,8.16
2023-01-13T22:43:00.863Z,8.15
2023-01-13T22:45:28.333Z,8.14
2023-01-13T22:47:55.763Z,8.12
2023-01-13T22:50:23.214Z,8.09
2023-01-13T22:52:50.752Z,8.04
2023-01-13T22:55:18.159Z,8.00
2023-01-13T22:57:48.389Z,7.97
2023-01-13T23:00:19.302Z,7.93
2023-01-13T23:02:47.072Z,7.86
2023-01-13T23:05:14.642Z,7.81
2023-01-13T23:07:42.053Z,7.77
2023-01-13T23:10:10.258Z,7.72
2023-01-13T23:12:37.760Z,7.67
2023-01-13T23:15:05.894Z,7.64
2023-01-13T23:17:33.400Z,7.60
2023-01-13T23:20:00.805Z,7.56
2023-01-13T23:22:28.300Z,7.53
2023-01-13T23:24:55.797Z,7.49
2023-01-13T23:27:23.262Z,7.45
2023-01-13T23:29:50.780Z,7.42
2023-01-13T23:32:18.221Z,7.39
2023-01-13T23:34:45.716Z,7.37
2023-01-13T23:37:13.198Z,7.34
2023-01-13T23:39:40.698Z,7.32
2023-01-13T23:42:08.266Z,7.29
2023-01-13T23:44:35.771Z,7.28
2023-01-13T23:47:03.325Z,7.25
2023-01-13T23:49:31.227Z,7.23
2023-01-13T23:51:58.701Z,7.21
2023-01-13T23:54:26.124Z,7.20
2023-01-13T23:56:57.382Z,7.19
2023-01-13T23:59:24.977Z,7.14
